Time;durP1;ratioP1;P1;durP2;ratioP2;P2;SDS_P1;SDS_P2;PMS_P1;PMS_P2;Temp;Humidity;BMP_temperature;BMP_pressure;BME280_temperature;BME280_humidity;BME280_pressure;Samples;Min_cycle;Max_cycle;Signal;HPM_P1;HPM_P2
2022/01/17 00:01:28;;;;;;;15.73;7.10;;;;;;;-5.40;75.29;97010.78;5113593;28;20481;-62
2022/01/17 00:03:54;;;;;;;13.48;7.38;;;;;;;-5.46;75.25;97022.53;5113557;28;20027;-64
2022/01/17 00:06:19;;;;;;;13.98;7.53;;;;;;;-5.50;75.51;97022.38;5113565;28;20030;-63
2022/01/17 00:08:46;;;;;;;17.30;7.55;;;;;;;-5.48;75.67;97029.25;5112401;28;20102;-63
2022/01/17 00:11:12;;;;;;;13.18;7.50;;;;;;;-5.39;75.58;97023.59;5113225;28;20484;-63
2022/01/17 00:13:39;;;;;;;14.55;7.90;;;;;;;-5.34;75.64;97018.63;5113302;28;20020;-63
2022/01/17 00:16:10;;;;;;;12.88;7.80;;;;;;;-5.31;75.42;97023.84;5113381;28;20381;-62
2022/01/17 00:21:06;;;;;;;16.10;8.18;;;;;;;-5.37;76.00;97015.97;5113574;28;20446;-62
2022/01/17 00:23:32;;;;;;;14.90;8.50;;;;;;;-5.37;76.40;97027.06;5113441;28;20477;-64
2022/01/17 00:25:57;;;;;;;14.40;7.55;;;;;;;-5.31;76.02;97028.94;5113590;28;20055;-64
2022/01/17 00:28:23;;;;;;;13.52;6.90;;;;;;;-5.31;75.50;97031.50;5113497;28;20028;-64
2022/01/17 00:30:49;;;;;;;12.52;7.00;;;;;;;-5.36;75.49;97033.03;5113579;28;20106;-64
2022/01/17 00:33:15;;;;;;;10.88;6.70;;;;;;;-5.32;75.59;97032.31;5113303;28;20532;-64
2022/01/17 00:35:40;;;;;;;12.38;7.30;;;;;;;-5.25;75.40;97033.38;5113361;28;20027;-64
2022/01/17 00:38:07;;;;;;;12.80;6.97;;;;;;;-5.24;75.31;97032.56;5113242;28;20034;-64
2022/01/17 00:40:33;;;;;;;14.07;7.22;;;;;;;-5.21;75.48;97032.69;5113183;28;20024;-62
2022/01/17 00:42:59;;;;;;;10.80;6.57;;;;;;;-5.26;75.79;97026.53;5113247;28;20020;-64
2022/01/17 00:45:27;;;;;;;13.30;7.43;;;;;;;-5.27;75.92;97022.28;5113297;28;20023;-63
2022/01/17 00:47:57;;;;;;;13.85;7.53;;;;;;;-5.30;76.24;97023.00;5113298;28;20026;-64
2022/01/17 00:50:28;;;;;;;14.18;7.80;;;;;;;-5.34;76.80;97016.09;5113222;28;20027;-64
2022/01/17 00:52:54;;;;;;;11.35;6.90;;;;;;;-5.33;77.11;97010.19;5113220;28;20063;-63
2022/01/17 00:55:21;;;;;;;11.98;7.13;;;;;;;-5.27;77.09;97004.41;5113246;28;20012;-63
2022/01/17 00:57:46;;;;;;;15.63;7.75;;;;;;;-5.18;77.10;97004.69;5113069;28;20034;-64
2022/01/17 01:00:12;;;;;;;12.55;7.70;;;;;;;-5.13;77.16;97005.69;5113093;28;20106;-63
2022/01/17 01:02:39;;;;;;;13.07;7.63;;;;;;;-5.08;76.91;97000.75;5113011;28;20027;-64
2022/01/17 01:05:06;;;;;;;10.50;7.00;;;;;;;-4.99;76.46;97002.72;5113032;28;20020;-63
2022/01/17 01:07:31;;;;;;;21.02;10.35;;;;;;;-4.93;76.51;96997.81;5113036;28;20369;-64
2022/01/17 01:10:06;;;;;;;13.25;7.47;;;;;;;-4.88;76.56;96985.19;5112938;28;20019;-64
2022/01/17 01:12:33;;;;;;;12.98;7.63;;;;;;;-4.81;76.45;96979.44;5112980;28;20059;-64
2022/01/17 01:14:59;;;;;;;11.40;7.07;;;;;;;-4.79;75.94;96975.22;5113007;28;20035;-64
2022/01/17 01:17:34;;;;;;;13.63;7.55;;;;;;;-4.73;75.72;96965.19;5113061;28;20051;-63
2022/01/17 01:20:23;;;;;;;9.57;6.20;;;;;;;-4.71;75.75;96957.56;5112874;28;20106;-63
2022/01/17 01:28:16;;;;;;;11.45;6.78;;;;;;;-4.61;75.03;96949.34;5116836;28;20381;-64
2022/01/17 01:30:46;;;;;;;11.90;6.35;;;;;;;-4.59;74.71;96940.06;5116537;28;20028;-63
2022/01/17 01:33:16;;;;;;;10.65;6.15;;;;;;;-4.60;75.19;96938.31;5116425;28;20019;-63
2022/01/17 01:35:46;;;;;;;11.50;6.28;;;;;;;-4.65;75.23;96932.22;5116455;28;20024;-63
2022/01/17 01:38:11;;;;;;;10.30;5.93;;;;;;;-4.73;75.31;96916.69;5116446;28;20107;-63
2022/01/17 01:40:37;;;;;;;13.80;6.28;;;;;;;-4.73;75.69;96908.16;5116260;28;20055;-64
2022/01/17 01:43:03;;;;;;;11.32;6.22;;;;;;;-4.67;75.99;96903.22;5116287;27;20020;-64
2022/01/17 01:45:29;;;;;;;15.50;6.88;;;;;;;-4.66;75.76;96897.31;5116418;28;20028;-62
2022/01/17 01:47:55;;;;;;;12.60;7.40;;;;;;;-4.62;75.67;96896.56;5116204;28;20019;-62
2022/01/17 01:50:20;;;;;;;14.70;7.13;;;;;;;-4.61;75.62;96890.63;5116192;28;20023;-63
2022/01/17 01:52:46;;;;;;;13.40;6.32;;;;;;;-4.58;75.73;96892.38;5116027;28;20103;-64
2022/01/17 01:55:18;;;;;;;10.30;6.38;;;;;;;-4.57;75.74;96897.53;5116109;28;20050;-63
2022/01/17 01:57:45;;;;;;;10.15;6.20;;;;;;;-4.56;75.53;96890.75;5116116;28;20161;-62
2022/01/17 02:00:12;;;;;;;10.77;6.00;;;;;;;-4.59;75.66;96888.09;5115918;28;20031;-63
2022/01/17 02:02:38;;;;;;;9.45;5.65;;;;;;;-4.65;76.27;96875.16;5115886;27;20084;-63
2022/01/17 02:05:04;;;;;;;10.98;5.97;;;;;;;-4.61;76.34;96875.28;5115880;28;20028;-64
2022/01/17 02:07:30;;;;;;;10.07;5.72;;;;;;;-4.54;75.90;96867.81;5114610;28;20028;-62
2022/01/17 02:09:56;;;;;;;12.20;6.32;;;;;;;-4.51;75.69;96871.31;5115893;28;20024;-62
2022/01/17 02:12:22;;;;;;;11.20;6.32;;;;;;;-4.55;75.46;96863.53;5115648;28;20039;-62
2022/01/17 02:14:50;;;;;;;11.68;6.40;;;;;;;-4.57;75.56;96860.94;5115735;28;20055;-64
2022/01/17 02:17:16;;;;;;;9.15;5.88;;;;;;;-4.57;76.23;96864.34;5115713;28;20486;-62
2022/01/17 02:19:45;;;;;;;9.13;5.30;;;;;;;-4.54;76.01;96868.69;5114172;28;20070;-63
2022/01/17 02:22:14;;;;;;;9.65;5.13;;;;;;;-4.51;75.63;96856.00;5115505;28;20477;-64
2022/01/17 02:24:40;;;;;;;11.60;5.60;;;;;;;-4.48;75.55;96857.75;5115445;28;20066;-64
2022/01/17 02:27:06;;;;;;;10.77;6.00;;;;;;;-4.43;75.64;96861.28;5115426;28;20047;-63
2022/01/17 02:29:31;;;;;;;9.77;5.65;;;;;;;-4.44;75.27;96863.00;5115392;28;20028;-64
2022/01/17 02:31:56;;;;;;;10.60;6.20;;;;;;;-4.40;75.16;96869.03;5115415;28;20027;-63
2022/01/17 02:34:23;;;;;;;11.68;6.53;;;;;;;-4.47;75.22;96862.03;5114987;28;20032;-63
2022/01/17 02:36:48;;;;;;;13.32;6.63;;;;;;;-4.59;75.72;96868.56;5115256;28;20416;-64
2022/01/17 02:39:14;;;;;;;11.40;6.55;;;;;;;-4.65;76.17;96860.72;5115082;28;20020;-62
2022/01/17 02:41:42;;;;;;;11.13;6.38;;;;;;;-4.66;76.44;96851.34;5115198;28;20023;-63
2022/01/17 02:44:08;;;;;;;12.27;6.82;;;;;;;-4.66;76.42;96846.22;5115102;28;20126;-63
2022/01/17 02:46:33;;;;;;;9.10;6.15;;;;;;;-4.59;76.42;96849.81;5115156;28;20055;-64
2022/01/17 02:49:01;;;;;;;11.98;7.15;;;;;;;-4.62;76.37;96848.03;5114940;28;20015;-63
2022/01/17 02:51:27;;;;;;;12.13;6.80;;;;;;;-4.65;76.19;96841.97;5114910;28;20030;-61
2022/01/17 02:53:53;;;;;;;12.93;6.82;;;;;;;-4.63;76.25;96850.56;5114702;28;20530;-63
2022/01/17 02:56:20;;;;;;;12.25;6.72;;;;;;;-4.62;75.98;96842.94;5114779;28;20027;-65
2022/01/17 02:58:47;;;;;;;13.48;6.43;;;;;;;-4.58;75.63;96839.63;5114805;28;20046;-64
2022/01/17 03:01:16;;;;;;;14.73;6.28;;;;;;;-4.58;75.53;96833.66;5114736;28;20028;-64
2022/01/17 03:03:42;;;;;;;11.00;6.57;;;;;;;-4.60;75.24;96840.41;5114619;28;20019;-63
2022/01/17 03:06:09;;;;;;;11.95;6.50;;;;;;;-4.66;75.35;96838.56;5114664;28;20111;-64
2022/01/17 03:08:35;;;;;;;12.75;6.60;;;;;;;-4.62;75.55;96824.19;5114652;28;20018;-63
2022/01/17 03:11:05;;;;;;;11.25;6.43;;;;;;;-4.62;75.37;96825.06;5114646;28;20031;-63
2022/01/17 03:13:33;;;;;;;13.88;6.30;;;;;;;-4.57;75.01;96826.03;5114414;28;20028;-63
2022/01/17 03:16:04;;;;;;;13.30;6.95;;;;;;;-4.64;75.00;96831.78;5114344;28;20096;-64
2022/01/17 03:18:33;;;;;;;12.02;6.40;;;;;;;-4.71;75.15;96818.03;5114371;27;20063;-64
2022/01/17 03:21:00;;;;;;;11.98;6.50;;;;;;;-4.70;75.13;96817.19;5114519;28;20791;-64
2022/01/17 03:23:26;;;;;;;11.20;6.45;;;;;;;-4.76;75.10;96827.22;5114421;28;20065;-64
2022/01/17 03:25:52;;;;;;;16.60;6.93;;;;;;;-4.84;74.79;96816.81;5114240;28;20059;-63
2022/01/17 03:28:18;;;;;;;12.68;7.15;;;;;;;-4.82;75.08;96822.81;5114273;28;20047;-64
2022/01/17 03:30:44;;;;;;;12.27;6.95;;;;;;;-4.99;75.42;96816.41;5114209;28;20059;-64
2022/01/17 03:33:12;;;;;;;12.52;6.45;;;;;;;-5.01;75.71;96810.38;5114141;27;20039;-64
2022/01/17 03:35:39;;;;;;;10.25;6.22;;;;;;;-5.03;75.94;96812.03;5114178;28;20537;-64
2022/01/17 03:38:07;;;;;;;12.30;7.10;;;;;;;-5.08;75.81;96805.09;5114047;28;20038;-62
2022/01/17 03:40:32;;;;;;;14.73;7.25;;;;;;;-5.17;75.88;96820.16;5113940;28;20411;-64
2022/01/17 03:42:58;;;;;;;18.40;7.85;;;;;;;-5.34;77.27;96818.00;5113923;28;20157;-63
2022/01/17 03:45:24;;;;;;;13.95;7.47;;;;;;;-5.26;77.22;96810.56;5113364;28;20019;-63
2022/01/17 03:47:50;;;;;;;10.80;6.35;;;;;;;-5.32;76.19;96811.22;5113938;28;20051;-64
2022/01/17 03:50:19;;;;;;;10.68;6.50;;;;;;;-5.32;76.16;96797.63;5113798;28;20102;-63
2022/01/17 03:52:45;;;;;;;12.75;6.63;;;;;;;-5.30;76.31;96801.06;5113730;28;20046;-64
2022/01/17 03:55:13;;;;;;;13.13;7.03;;;;;;;-5.29;76.37;96800.28;5113967;28;20024;-62
2022/01/17 03:57:38;;;;;;;10.77;6.55;;;;;;;-5.32;76.23;96810.38;5113830;28;20031;-63
2022/01/17 04:00:08;;;;;;;11.50;6.68;;;;;;;-5.37;76.31;96799.16;5113792;28;20081;-64
2022/01/17 04:02:34;;;;;;;9.55;5.57;;;;;;;-5.35;76.29;96792.44;5113640;28;20063;-63
2022/01/17 04:04:59;;;;;;;12.10;6.60;;;;;;;-5.36;75.90;96803.47;5112462;28;20034;-63
2022/01/17 04:07:25;;;;;;;12.13;6.13;;;;;;;-5.38;76.19;96790.69;5113643;28;20102;-63
2022/01/17 04:09:51;;;;;;;10.13;6.10;;;;;;;-5.31;75.77;96804.47;5113570;28;20058;-64
2022/01/17 04:12:16;;;;;;;11.95;5.55;;;;;;;-5.35;75.66;96798.41;5113573;28;20077;-64
2022/01/17 04:14:42;;;;;;;13.07;6.30;;;;;;;-5.42;75.44;96810.94;5113563;28;20031;-63
2022/01/17 04:17:07;;;;;;;11.55;6.70;;;;;;;-5.39;75.18;96806.78;5113578;28;20485;-64
2022/01/17 04:19:33;;;;;;;9.95;5.53;;;;;;;-5.36;75.05;96799.22;5113290;28;20040;-63
2022/01/17 04:22:00;;;;;;;9.57;5.82;;;;;;;-5.46;74.87;96799.78;5113596;28;20023;-63
2022/01/17 04:24:25;;;;;;;10.55;6.60;;;;;;;-5.47;74.84;96808.25;5113493;28;20043;-64
2022/01/17 04:26:51;;;;;;;68.97;37.20;;;;;;;-5.48;74.59;96806.53;5113337;28;20086;-63
2022/01/17 04:29:17;;;;;;;61.47;32.47;;;;;;;-5.55;74.84;96820.78;5113333;28;20053;-63
2022/01/17 04:31:42;;;;;;;75.35;39.70;;;;;;;-5.53;74.75;96816.59;5113477;28;20099;-64
2022/01/17 04:34:08;;;;;;;15.18;10.15;;;;;;;-5.60;75.25;96824.88;5113304;28;20373;-64
2022/01/17 04:36:33;;;;;;;14.20;7.68;;;;;;;-5.66;75.50;96820.44;5113424;28;20492;-63
2022/01/17 04:38:59;;;;;;;11.60;6.07;;;;;;;-5.66;75.49;96817.88;5113286;28;20035;-64
2022/01/17 04:41:36;;;;;;;12.95;7.00;;;;;;;-5.71;75.77;96812.69;5113372;28;20034;-64
2022/01/17 04:46:48;;;;;;;11.25;7.40;;;;;;;-5.72;76.16;96808.38;5091700;28;20036;-62
2022/01/17 04:49:14;;;;;;;13.95;7.45;;;;;;;-5.71;76.20;96809.25;5113343;28;20055;-64
2022/01/17 04:51:40;;;;;;;12.85;7.22;;;;;;;-5.69;75.82;96806.75;5113229;28;20035;-64
2022/01/17 04:54:38;;;;;;;10.30;6.13;;;;;;;-5.69;75.56;96788.91;5113043;28;20032;-64
2022/01/17 04:57:03;;;;;;;10.90;6.90;;;;;;;-5.61;75.72;96784.88;5113465;28;20028;-63
2022/01/17 04:59:29;;;;;;;11.57;7.18;;;;;;;-5.69;75.49;96789.75;5117082;28;20114;-63
2022/01/17 05:01:54;;;;;;;15.68;7.03;;;;;;;-5.76;75.98;96783.63;5117121;27;20024;-64
2022/01/17 05:04:20;;;;;;;13.07;6.97;;;;;;;-5.73;75.93;96780.28;5117123;28;20024;-63
2022/01/17 05:06:45;;;;;;;16.42;6.55;;;;;;;-5.67;75.58;96784.69;5117223;28;20496;-62
2022/01/17 05:09:11;;;;;;;17.48;7.78;;;;;;;-5.75;75.80;96781.94;5116945;28;20031;-64
2022/01/17 05:11:36;;;;;;;13.98;7.10;;;;;;;-5.72;75.72;96784.59;5116888;28;20024;-63
2022/01/17 05:14:02;;;;;;;13.40;6.95;;;;;;;-5.72;75.58;96785.44;5116776;28;20043;-63
2022/01/17 05:16:35;;;;;;;12.73;6.10;;;;;;;-5.73;75.37;96783.72;5116810;28;20495;-63
2022/01/17 05:21:44;;;;;;;10.80;6.72;;;;;;;-5.83;75.89;96781.72;5116854;28;20506;-63
2022/01/17 05:24:10;;;;;;;12.35;7.47;;;;;;;-5.79;76.70;96787.75;5115487;28;21257;-62
2022/01/17 05:26:35;;;;;;;12.30;8.00;;;;;;;-5.74;76.79;96786.22;5116567;27;20365;-64
2022/01/17 05:29:01;;;;;;;12.45;7.68;;;;;;;-5.78;75.91;96769.09;5116560;28;20033;-64
2022/01/17 05:31:27;;;;;;;14.48;7.15;;;;;;;-5.81;75.71;96769.00;5116586;28;20031;-63
2022/01/17 05:33:52;;;;;;;15.43;6.63;;;;;;;-5.84;75.84;96768.09;5116438;28;20057;-63
2022/01/17 05:36:18;;;;;;;12.13;7.18;;;;;;;-5.90;76.04;96752.59;5116580;28;20039;-62
2022/01/17 05:38:43;;;;;;;19.15;7.85;;;;;;;-5.99;76.29;96768.47;5116386;27;20036;-64
2022/01/17 05:41:09;;;;;;;15.15;6.20;;;;;;;-5.94;76.35;96776.28;5116337;28;20103;-62
2022/01/17 05:43:34;;;;;;;12.27;7.47;;;;;;;-5.86;75.93;96773.97;5116368;28;20412;-64
2022/01/17 05:46:00;;;;;;;14.18;7.97;;;;;;;-5.84;76.67;96767.25;5116245;28;20431;-64
2022/01/17 05:48:26;;;;;;;13.60;6.78;;;;;;;-5.91;76.38;96770.41;5116278;28;20487;-64
2022/01/17 05:50:51;;;;;;;12.68;7.13;;;;;;;-5.89;76.25;96774.75;5116173;28;20028;-62
2022/01/17 05:53:17;;;;;;;13.57;7.00;;;;;;;-5.95;76.45;96774.56;5116041;28;20065;-65
2022/01/17 05:55:42;;;;;;;14.45;7.78;;;;;;;-5.92;77.01;96774.66;5116052;28;20019;-63
2022/01/17 05:58:08;;;;;;;14.27;8.02;;;;;;;-5.87;76.68;96774.78;5115933;28;20023;-64
2022/01/17 06:00:34;;;;;;;14.15;7.82;;;;;;;-5.78;78.56;96771.66;5114890;28;20032;-64
2022/01/17 06:02:59;;;;;;;15.50;7.72;;;;;;;-5.76;78.19;96773.41;5115822;28;20431;-63
2022/01/17 06:05:25;;;;;;;13.95;8.30;;;;;;;-5.74;77.87;96768.38;5115832;28;20054;-62
2022/01/17 06:07:51;;;;;;;12.20;7.53;;;;;;;-5.63;77.71;96758.50;5115425;28;20024;-64
2022/01/17 06:10:17;;;;;;;14.00;7.75;;;;;;;-5.54;77.19;96761.28;5115789;28;20024;-65
2022/01/17 06:12:42;;;;;;;10.05;7.30;;;;;;;-5.47;76.16;96755.56;5115784;27;20103;-63
2022/01/17 06:15:08;;;;;;;14.00;7.65;;;;;;;-5.45;75.89;96759.00;5115863;28;20466;-64
2022/01/17 06:17:34;;;;;;;13.95;7.82;;;;;;;-5.36;75.88;96775.41;5115720;28;20023;-63
2022/01/17 06:20:00;;;;;;;12.55;8.02;;;;;;;-5.27;75.70;96772.25;5115682;28;20468;-61
2022/01/17 06:22:26;;;;;;;14.32;7.35;;;;;;;-5.17;75.10;96775.91;5115779;28;20098;-63
2022/01/17 06:24:51;;;;;;;12.68;7.38;;;;;;;-4.40;75.23;96769.41;5115548;28;20072;-63
2022/01/17 06:27:18;;;;;;;10.07;6.20;;;;;;;-2.63;70.27;96750.91;5115388;28;20036;-65
2022/01/17 06:29:43;;;;;;;10.75;6.22;;;;;;;-0.84;63.51;96757.63;5115494;28;20027;-65
2022/01/17 06:32:09;;;;;;;9.25;5.78;;;;;;;1.08;57.87;96745.25;5115332;28;20016;-65
2022/01/17 06:34:34;;;;;;;8.73;5.60;;;;;;;2.76;52.50;96728.81;5115315;28;20024;-62
2022/01/17 06:37:00;;;;;;;7.57;4.97;;;;;;;3.97;49.25;96732.38;5115314;28;20030;-63
2022/01/17 06:39:26;;;;;;;10.30;5.90;;;;;;;5.17;45.53;96717.25;5115296;28;20016;-65
2022/01/17 06:41:51;;;;;;;8.00;5.50;;;;;;;6.51;42.45;96712.56;5115286;28;20073;-66
2022/01/17 06:44:17;;;;;;;10.00;5.57;;;;;;;7.52;40.23;96719.13;5115310;28;20019;-63
2022/01/17 06:46:43;;;;;;;8.15;5.88;;;;;;;8.45;38.11;96713.38;5115041;28;20023;-62
2022/01/17 06:49:09;;;;;;;9.75;5.60;;;;;;;9.68;36.87;96716.88;5115020;28;20028;-66
2022/01/17 06:51:36;;;;;;;6.97;5.57;;;;;;;10.55;34.37;96724.50;5114958;28;20022;-66
2022/01/17 06:54:01;;;;;;;8.15;5.75;;;;;;;11.19;33.45;96721.34;5114804;28;20027;-64
2022/01/17 06:56:29;;;;;;;8.15;5.47;;;;;;;12.00;32.09;96724.34;5115068;28;20116;-65
2022/01/17 06:58:55;;;;;;;9.73;6.38;;;;;;;12.33;31.60;96706.44;5114894;28;20051;-65
2022/01/17 07:01:22;;;;;;;9.27;5.80;;;;;;;12.66;30.67;96705.88;5114975;28;20511;-66
2022/01/17 07:03:50;;;;;;;8.65;5.97;;;;;;;13.45;30.01;96688.34;5114118;28;20092;-67
2022/01/17 07:06:16;;;;;;;7.38;5.57;;;;;;;14.33;28.88;96700.78;5114776;28;20068;-63
2022/01/17 07:08:45;;;;;;;7.38;5.63;;;;;;;14.12;28.70;96698.31;5114658;28;20477;-65
2022/01/17 07:11:12;;;;;;;9.35;6.65;;;;;;;13.73;28.53;96696.72;5115311;27;20027;-64
2022/01/17 07:13:37;;;;;;;9.43;6.57;;;;;;;14.02;28.21;96705.81;5114773;28;20027;-67
2022/01/17 07:16:03;;;;;;;10.73;6.90;;;;;;;14.67;27.44;96700.84;5114378;28;20034;-67
2022/01/17 07:18:29;;;;;;;8.20;6.50;;;;;;;15.12;27.17;96692.41;5114254;28;20421;-63
2022/01/17 07:20:55;;;;;;;9.10;6.55;;;;;;;16.14;25.72;96683.22;5113641;28;20020;-65
2022/01/17 07:23:21;;;;;;;8.80;6.40;;;;;;;16.72;25.19;96674.59;5114510;28;20031;-66
2022/01/17 07:25:46;;;;;;;11.63;7.63;;;;;;;17.15;24.85;96692.25;5114364;28;20530;-63
2022/01/17 07:28:13;;;;;;;11.38;8.32;;;;;;;17.52;24.67;96685.59;5114190;28;20135;-67
2022/01/17 07:30:39;;;;;;;10.77;7.03;;;;;;;17.61;24.19;96682.34;5114143;28;20098;-66
2022/01/17 07:33:07;;;;;;;11.70;7.60;;;;;;;17.33;24.42;96675.34;5114161;28;20024;-64
2022/01/17 07:35:34;;;;;;;8.43;6.82;;;;;;;17.87;23.87;96663.06;5114326;28;20019;-67
2022/01/17 07:38:00;;;;;;;9.73;7.30;;;;;;;18.28;23.39;96659.53;5114149;28;20031;-67
2022/01/17 07:40:26;;;;;;;9.65;7.53;;;;;;;19.04;22.57;96653.47;5113973;28;20026;-66
2022/01/17 07:42:52;;;;;;;8.50;6.53;;;;;;;19.10;22.64;96649.56;5114105;28;20038;-67
2022/01/17 07:45:19;;;;;;;10.27;7.88;;;;;;;18.98;22.21;96635.34;5113968;28;20429;-65
2022/01/17 07:48:12;;;;;;;9.77;7.97;;;;;;;19.03;22.33;96629.72;5114085;28;20393;-63
2022/01/17 07:50:32;;;;;;;10.82;8.43;;;;;;;19.89;21.55;96637.69;5113868;28;20074;-66
2022/01/17 07:52:57;;;;;;;11.55;8.57;;;;;;;20.54;20.81;96647.94;5113785;28;20059;-68
2022/01/17 07:55:23;;;;;;;10.05;7.47;;;;;;;20.05;21.48;96657.84;5113913;28;20058;-65
2022/01/17 07:57:49;;;;;;;9.38;7.68;;;;;;;19.94;20.87;96683.34;5113786;28;20039;-66
2022/01/17 08:00:22;;;;;;;10.90;8.18;;;;;;;19.93;20.71;96671.00;5113686;28;20497;-67
2022/01/17 08:02:50;;;;;;;11.90;8.48;;;;;;;20.18;20.68;96663.06;5113847;28;20032;-66
2022/01/17 08:05:16;;;;;;;9.13;8.00;;;;;;;20.58;20.58;96669.78;5113612;28;20103;-65
2022/01/17 08:07:42;;;;;;;11.13;7.72;;;;;;;21.17;19.85;96667.09;5113756;28;20537;-69
2022/01/17 08:10:12;;;;;;;10.05;6.57;;;;;;;21.30;19.77;96680.25;5113869;28;20028;-66
2022/01/17 08:12:42;;;;;;;10.43;8.05;;;;;;;21.48;19.48;96695.69;5114267;28;20490;-66
2022/01/17 08:15:09;;;;;;;10.82;8.30;;;;;;;20.53;20.87;96709.16;5115041;28;20038;-64
2022/01/17 08:17:34;;;;;;;11.38;8.13;;;;;;;20.44;20.89;96738.09;5113578;28;20485;-65
2022/01/17 08:20:00;;;;;;;10.95;7.93;;;;;;;21.43;19.96;96781.22;5113433;28;20040;-64
2022/01/17 08:22:25;;;;;;;9.98;7.85;;;;;;;21.32;20.45;96785.59;5113829;28;20031;-66
2022/01/17 08:24:51;;;;;;;9.40;8.15;;;;;;;20.29;21.13;96797.69;5113656;28;20028;-67
2022/01/17 08:27:17;;;;;;;8.90;7.93;;;;;;;19.62;21.91;96805.09;5114416;28;20405;-69
2022/01/17 08:29:43;;;;;;;10.73;8.23;;;;;;;19.39;22.09;96750.03;5114015;28;20020;-67
2022/01/17 08:32:08;;;;;;;12.40;9.15;;;;;;;19.57;22.36;96712.56;5115767;28;20480;-67
2022/01/17 08:34:34;;;;;;;9.77;7.88;;;;;;;20.62;20.52;96715.59;5117815;28;20024;-65
2022/01/17 08:37:00;;;;;;;13.00;8.07;;;;;;;21.36;19.53;96708.16;5117905;28;20027;-61
2022/01/17 08:39:25;;;;;;;11.57;8.40;;;;;;;20.70;20.35;96691.91;5118743;28;20379;-65
2022/01/17 08:41:52;;;;;;;11.15;7.97;;;;;;;20.75;20.57;96680.94;5118329;28;20055;-66
2022/01/17 08:44:19;;;;;;;12.75;8.68;;;;;;;20.96;20.12;96652.69;5118143;27;20509;-66
2022/01/17 08:46:45;;;;;;;9.13;7.13;;;;;;;20.57;20.77;96639.75;5117623;28;20020;-68
2022/01/17 08:49:11;;;;;;;10.23;7.65;;;;;;;19.32;21.61;96638.25;5117853;28;20023;-64
2022/01/17 08:51:38;;;;;;;9.85;7.22;;;;;;;17.91;23.25;96648.72;5117919;28;20396;-64
2022/01/17 08:54:04;;;;;;;9.00;7.70;;;;;;;17.51;24.60;96629.22;5117703;28;20023;-67
2022/01/17 08:56:30;;;;;;;12.43;7.68;;;;;;;16.72;25.39;96603.28;5117297;28;20024;-65
2022/01/17 08:58:57;;;;;;;10.20;7.30;;;;;;;15.49;26.69;96599.91;5117168;28;20484;-66
2022/01/17 09:01:23;;;;;;;10.50;7.60;;;;;;;14.46;29.14;96587.00;5117232;28;20099;-66
2022/01/17 09:03:49;;;;;;;10.25;7.53;;;;;;;13.42;30.98;96601.78;5117085;28;20024;-64
2022/01/17 09:06:15;;;;;;;11.00;6.78;;;;;;;12.67;31.70;96602.63;5117087;28;20019;-64
2022/01/17 09:08:42;;;;;;;11.48;7.43;;;;;;;12.04;32.92;96580.84;5117075;28;20099;-68
2022/01/17 09:11:08;;;;;;;8.60;7.18;;;;;;;11.11;33.91;96551.50;5117090;28;20469;-67
2022/01/17 09:13:34;;;;;;;9.77;6.63;;;;;;;10.53;34.60;96548.44;5116891;28;20024;-66
2022/01/17 09:16:00;;;;;;;10.35;7.07;;;;;;;9.85;36.67;96536.91;5116980;28;20367;-66
2022/01/17 09:18:25;;;;;;;11.60;6.72;;;;;;;9.37;38.47;96528.09;5116711;28;20118;-67
2022/01/17 09:20:51;;;;;;;10.70;6.55;;;;;;;9.19;39.06;96566.09;5116718;28;20461;-65
2022/01/17 09:23:17;;;;;;;11.13;6.50;;;;;;;8.82;39.75;96568.94;5116734;28;20109;-66
2022/01/17 09:25:43;;;;;;;8.35;5.63;;;;;;;8.74;38.74;96573.56;5116673;27;20011;-65
2022/01/17 09:28:09;;;;;;;9.95;6.43;;;;;;;8.71;39.49;96573.63;5116671;28;20027;-66
2022/01/17 09:30:34;;;;;;;10.98;6.50;;;;;;;8.51;40.67;96558.53;5116521;28;20035;-63
2022/01/17 09:33:00;;;;;;;10.20;6.45;;;;;;;8.42;39.88;96563.13;5116393;27;20031;-64
2022/01/17 09:35:26;;;;;;;10.52;6.70;;;;;;;8.40;41.80;96554.50;5116605;28;20065;-65
2022/01/17 09:37:52;;;;;;;11.18;6.28;;;;;;;8.41;41.28;96556.22;5116452;28;20115;-66
2022/01/17 09:40:19;;;;;;;7.68;5.55;;;;;;;8.66;39.82;96541.63;5116428;28;20024;-64
2022/01/17 09:42:45;;;;;;;7.78;5.97;;;;;;;8.74;40.45;96539.66;5115560;28;20081;-64
2022/01/17 09:45:14;;;;;;;11.23;6.25;;;;;;;8.91;39.57;96538.28;5116231;28;20080;-64
2022/01/17 09:47:41;;;;;;;8.65;5.75;;;;;;;8.85;39.86;96541.91;5116234;28;20370;-65
2022/01/17 09:50:12;;;;;;;10.40;6.18;;;;;;;8.74;39.62;96530.97;5116131;28;20032;-63
2022/01/17 09:52:47;;;;;;;8.80;6.25;;;;;;;8.90;39.97;96520.88;5116203;28;20032;-66
2022/01/17 09:55:21;;;;;;;8.60;5.35;;;;;;;8.70;38.51;96528.44;5116085;28;20165;-63
2022/01/17 09:57:54;;;;;;;9.00;5.72;;;;;;;8.82;39.59;96536.81;5116116;28;20066;-61
2022/01/17 10:00:27;;;;;;;10.88;6.35;;;;;;;8.96;39.33;96529.41;5116085;28;20028;-62
2022/01/17 10:03:03;;;;;;;10.63;5.78;;;;;;;9.01;39.15;96528.38;5116078;28;20386;-65
2022/01/17 10:05:29;;;;;;;7.43;5.95;;;;;;;8.86;38.52;96527.97;5116063;28;20418;-65
2022/01/17 10:08:08;;;;;;;9.80;5.15;;;;;;;8.89;39.13;96530.50;5115782;28;20015;-62
2022/01/17 10:10:40;;;;;;;8.85;5.45;;;;;;;9.04;38.25;96533.50;5115869;28;20027;-64
2022/01/17 10:13:24;;;;;;;8.40;5.20;;;;;;;9.07;38.74;96533.41;5115754;28;20036;-62
2022/01/17 10:16:05;;;;;;;8.05;5.53;;;;;;;8.94;38.15;96532.97;5115727;28;20085;-64
2022/01/17 10:18:35;;;;;;;6.45;4.80;;;;;;;9.09;38.36;96524.63;5115477;28;20489;-65
2022/01/17 10:21:06;;;;;;;5.90;3.97;;;;;;;9.29;38.55;96517.03;5115631;28;20072;-62
2022/01/17 10:24:02;;;;;;;5.97;4.53;;;;;;;9.33;37.56;96503.84;5115625;27;20405;-64
2022/01/17 10:29:12;;;;;;;10.38;4.78;;;;;;;9.69;38.15;96497.41;5115535;28;20024;-65
2022/01/17 10:37:10;;;;;;;9.52;5.57;;;;;;;9.55;39.13;96490.06;5115636;28;20088;-65
2022/01/17 10:39:39;;;;;;;5.97;4.18;;;;;;;9.65;38.78;96480.13;5115379;28;20020;-64
2022/01/17 10:42:34;;;;;;;7.68;5.10;;;;;;;9.73;37.78;96469.44;5115248;28;20024;-65
2022/01/17 10:45:13;;;;;;;7.47;4.57;;;;;;;9.82;38.02;96460.41;5115146;28;20035;-64
2022/01/17 10:47:43;;;;;;;7.40;4.97;;;;;;;9.84;36.80;96474.25;5115107;28;20051;-63
2022/01/17 10:50:13;;;;;;;4.85;3.35;;;;;;;9.96;35.95;96468.59;5115214;28;20077;-65
2022/01/17 10:52:46;;;;;;;6.97;4.55;;;;;;;10.08;36.20;96471.63;5115049;28;20020;-65
2022/01/17 10:55:24;;;;;;;5.80;4.13;;;;;;;10.15;35.52;96475.75;5115016;28;20477;-65
2022/01/17 10:57:53;;;;;;;6.38;4.35;;;;;;;10.26;36.18;96457.03;5115137;28;20027;-65
2022/01/17 11:00:21;;;;;;;7.72;5.05;;;;;;;10.33;36.38;96462.91;5114935;28;20083;-63
2022/01/17 11:02:50;;;;;;;6.88;4.35;;;;;;;10.32;36.70;96463.78;5114800;28;20031;-64
2022/01/17 11:05:17;;;;;;;6.43;4.28;;;;;;;10.29;36.17;96456.09;5114811;28;20028;-62
2022/01/17 11:07:48;;;;;;;8.70;5.68;;;;;;;10.43;36.85;96463.38;5114804;28;20066;-64
2022/01/17 11:10:16;;;;;;;9.77;4.35;;;;;;;10.46;36.43;96464.16;5114586;28;20473;-63
2022/01/17 11:12:42;;;;;;;7.13;4.10;;;;;;;10.43;37.61;96451.16;5114521;28;20024;-64
2022/01/17 11:15:10;;;;;;;5.88;4.20;;;;;;;10.46;35.97;96438.00;5114418;28;20038;-63
2022/01/17 11:17:38;;;;;;;6.32;4.43;;;;;;;10.44;36.38;96436.31;5114555;28;20064;-62
2022/01/17 11:20:08;;;;;;;9.23;4.20;;;;;;;10.34;36.15;96428.84;5114319;28;20103;-62
2022/01/17 11:22:43;;;;;;;7.20;4.13;;;;;;;10.44;36.75;96413.63;5114481;28;20031;-66
2022/01/17 11:25:21;;;;;;;5.28;3.60;;;;;;;10.45;34.84;96417.97;5114398;28;20541;-65
2022/01/17 11:27:48;;;;;;;6.10;3.58;;;;;;;10.49;35.55;96410.88;5114561;28;20035;-65
2022/01/17 11:30:15;;;;;;;5.30;3.47;;;;;;;10.42;35.81;96410.22;5114599;28;20050;-65
2022/01/17 11:32:41;;;;;;;4.25;3.42;;;;;;;10.56;35.05;96408.84;5114230;28;20028;-65
2022/01/17 11:35:08;;;;;;;6.90;3.70;;;;;;;10.63;35.12;96412.94;5114114;28;20023;-64
2022/01/17 11:37:37;;;;;;;5.25;3.55;;;;;;;10.59;34.58;96413.97;5114190;28;20027;-63
2022/01/17 11:40:07;;;;;;;6.90;3.83;;;;;;;10.55;34.40;96408.03;5114250;28;20031;-65
2022/01/17 11:42:48;;;;;;;4.97;3.33;;;;;;;10.60;34.37;96426.16;5114010;28;20116;-64
2022/01/17 11:45:22;;;;;;;;;;;;;;;10.57;34.80;96437.56;5114422;28;20059;-64
2022/01/17 11:47:53;;;;;;;5.63;3.58;;;;;;;10.55;34.68;96428.94;5113941;28;19922;-63
2022/01/17 11:50:28;;;;;;;;;;;;;;;10.65;35.02;96416.34;5114400;28;20032;-65
2022/01/17 11:52:55;;;;;;;5.50;3.40;;;;;;;10.73;34.24;96414.28;5113868;28;19912;-65